sensor_id;sensor_type;location;lat;lon;timestamp;P1;durP1;ratioP1;P2;durP2;ratioP2
28836;SDS011;50669;50.982;11.022;2023-03-14T00:01:30;4.97;;;4.40;;
28836;SDS011;50669;50.982;11.022;2023-03-14T00:03:55;4.93;;;3.90;;
28836;SDS011;50669;50.982;11.022;2023-03-14T00:06:26;5.78;;;4.40;;
28836;SDS011;50669;50.982;11.022;2023-03-14T00:08:54;5.82;;;4.05;;
28836;SDS011;50669;50.982;11.022;2023-03-14T00:11:20;6.18;;;4.50;;
28836;SDS011;50669;50.982;11.022;2023-03-14T00:13:47;5.07;;;4.47;;
28836;SDS011;50669;50.982;11.022;2023-03-14T00:16:17;4.53;;;4.10;;
28836;SDS011;50669;50.982;11.022;2023-03-14T00:18:42;4.47;;;4.05;;
28836;SDS011;50669;50.982;11.022;2023-03-14T00:21:09;5.50;;;4.30;;
28836;SDS011;50669;50.982;11.022;2023-03-14T00:23:36;4.72;;;4.10;;
28836;SDS011;50669;50.982;11.022;2023-03-14T00:26:06;4.80;;;4.10;;
28836;SDS011;50669;50.982;11.022;2023-03-14T00:28:36;6.30;;;4.57;;
28836;SDS011;50669;50.982;11.022;2023-03-14T00:31:03;4.68;;;3.75;;
28836;SDS011;50669;50.982;11.022;2023-03-14T00:33:33;4.22;;;3.83;;
28836;SDS011;50669;50.982;11.022;2023-03-14T00:36:00;5.63;;;4.50;;
28836;SDS011;50669;50.982;11.022;2023-03-14T00:38:28;4.95;;;4.07;;
28836;SDS011;50669;50.982;11.022;2023-03-14T00:40:54;5.05;;;4.10;;
28836;SDS011;50669;50.982;11.022;2023-03-14T00:43:25;5.78;;;4.20;;
28836;SDS011;50669;50.982;11.022;2023-03-14T00:45:53;5.38;;;4.22;;
28836;SDS011;50669;50.982;11.022;2023-03-14T00:48:22;5.00;;;4.20;;
28836;SDS011;50669;50.982;11.022;2023-03-14T00:50:47;4.13;;;3.50;;
28836;SDS011;50669;50.982;11.022;2023-03-14T00:53:16;4.88;;;3.88;;
28836;SDS011;50669;50.982;11.022;2023-03-14T00:55:44;5.85;;;4.70;;
28836;SDS011;50669;50.982;11.022;2023-03-14T00:58:11;5.00;;;4.20;;
28836;SDS011;50669;50.982;11.022;2023-03-14T01:00:40;4.53;;;3.60;;
28836;SDS011;50669;50.982;11.022;2023-03-14T01:03:06;5.22;;;4.28;;
28836;SDS011;50669;50.982;11.022;2023-03-14T01:05:33;5.00;;;4.30;;
28836;SDS011;50669;50.982;11.022;2023-03-14T01:07:59;4.32;;;3.88;;
28836;SDS011;50669;50.982;11.022;2023-03-14T01:10:24;4.65;;;4.07;;
28836;SDS011;50669;50.982;11.022;2023-03-14T01:12:52;5.20;;;4.07;;
28836;SDS011;50669;50.982;11.022;2023-03-14T01:15:18;4.53;;;3.88;;
28836;SDS011;50669;50.982;11.022;2023-03-14T01:17:44;4.65;;;3.95;;
28836;SDS011;50669;50.982;11.022;2023-03-14T01:20:11;4.43;;;3.72;;
28836;SDS011;50669;50.982;11.022;2023-03-14T01:22:38;4.57;;;4.07;;
28836;SDS011;50669;50.982;11.022;2023-03-14T01:25:05;4.50;;;3.38;;
28836;SDS011;50669;50.982;11.022;2023-03-14T01:27:34;6.35;;;4.57;;
28836;SDS011;50669;50.982;11.022;2023-03-14T01:30:00;4.65;;;3.58;;
28836;SDS011;50669;50.982;11.022;2023-03-14T01:32:27;4.45;;;3.90;;
28836;SDS011;50669;50.982;11.022;2023-03-14T01:34:52;5.10;;;3.97;;
28836;SDS011;50669;50.982;11.022;2023-03-14T01:37:20;4.32;;;3.72;;
28836;SDS011;50669;50.982;11.022;2023-03-14T01:39:51;5.72;;;4.07;;
28836;SDS011;50669;50.982;11.022;2023-03-14T01:42:16;4.47;;;3.85;;
28836;SDS011;50669;50.982;11.022;2023-03-14T01:47:36;5.38;;;4.10;;
28836;SDS011;50669;50.982;11.022;2023-03-14T01:50:04;5.05;;;4.32;;
28836;SDS011;50669;50.982;11.022;2023-03-14T01:55:06;5.00;;;3.80;;
28836;SDS011;50669;50.982;11.022;2023-03-14T01:57:47;4.43;;;3.85;;
28836;SDS011;50669;50.982;11.022;2023-03-14T02:00:21;5.05;;;3.38;;
28836;SDS011;50669;50.982;11.022;2023-03-14T02:02:48;4.00;;;3.38;;
28836;SDS011;50669;50.982;11.022;2023-03-14T02:05:28;3.53;;;3.20;;
28836;SDS011;50669;50.982;11.022;2023-03-14T02:07:59;4.50;;;3.95;;
28836;SDS011;50669;50.982;11.022;2023-03-14T02:10:33;4.90;;;3.90;;
28836;SDS011;50669;50.982;11.022;2023-03-14T02:13:03;4.57;;;3.28;;
28836;SDS011;50669;50.982;11.022;2023-03-14T02:15:30;3.83;;;3.15;;
28836;SDS011;50669;50.982;11.022;2023-03-14T02:17:57;4.80;;;3.85;;
28836;SDS011;50669;50.982;11.022;2023-03-14T02:22:58;4.78;;;3.63;;
28836;SDS011;50669;50.982;11.022;2023-03-14T02:25:28;4.20;;;3.63;;
28836;SDS011;50669;50.982;11.022;2023-03-14T02:28:15;5.18;;;3.75;;
28836;SDS011;50669;50.982;11.022;2023-03-14T02:30:41;3.97;;;3.35;;
28836;SDS011;50669;50.982;11.022;2023-03-14T02:33:08;5.20;;;3.47;;
28836;SDS011;50669;50.982;11.022;2023-03-14T02:38:37;4.03;;;3.47;;
28836;SDS011;50669;50.982;11.022;2023-03-14T02:41:07;3.83;;;3.33;;
28836;SDS011;50669;50.982;11.022;2023-03-14T02:43:33;4.18;;;3.30;;
28836;SDS011;50669;50.982;11.022;2023-03-14T02:46:03;4.70;;;3.33;;
28836;SDS011;50669;50.982;11.022;2023-03-14T02:48:41;4.05;;;3.63;;
28836;SDS011;50669;50.982;11.022;2023-03-14T02:51:15;4.38;;;3.45;;
28836;SDS011;50669;50.982;11.022;2023-03-14T02:53:41;4.22;;;3.42;;
28836;SDS011;50669;50.982;11.022;2023-03-14T02:56:09;4.57;;;3.42;;
28836;SDS011;50669;50.982;11.022;2023-03-14T02:58:36;3.80;;;3.10;;
28836;SDS011;50669;50.982;11.022;2023-03-14T03:01:04;4.13;;;3.50;;
28836;SDS011;50669;50.982;11.022;2023-03-14T03:03:33;3.67;;;3.03;;
28836;SDS011;50669;50.982;11.022;2023-03-14T03:05:58;3.83;;;3.10;;
28836;SDS011;50669;50.982;11.022;2023-03-14T03:08:25;3.85;;;3.25;;
28836;SDS011;50669;50.982;11.022;2023-03-14T03:10:52;3.65;;;3.30;;
28836;SDS011;50669;50.982;11.022;2023-03-14T03:13:18;4.03;;;3.42;;
28836;SDS011;50669;50.982;11.022;2023-03-14T03:15:44;4.32;;;3.45;;
28836;SDS011;50669;50.982;11.022;2023-03-14T03:18:10;4.25;;;3.17;;
28836;SDS011;50669;50.982;11.022;2023-03-14T03:20:36;4.05;;;3.25;;
28836;SDS011;50669;50.982;11.022;2023-03-14T03:23:02;3.67;;;3.00;;
28836;SDS011;50669;50.982;11.022;2023-03-14T03:25:28;4.72;;;3.60;;
28836;SDS011;50669;50.982;11.022;2023-03-14T03:27:54;4.47;;;3.70;;
28836;SDS011;50669;50.982;11.022;2023-03-14T03:30:20;3.70;;;3.10;;
28836;SDS011;50669;50.982;11.022;2023-03-14T03:32:46;3.38;;;2.95;;
28836;SDS011;50669;50.982;11.022;2023-03-14T03:35:11;4.28;;;3.45;;
28836;SDS011;50669;50.982;11.022;2023-03-14T03:37:37;4.05;;;3.25;;
28836;SDS011;50669;50.982;11.022;2023-03-14T03:40:03;4.38;;;3.10;;
28836;SDS011;50669;50.982;11.022;2023-03-14T03:42:31;4.07;;;2.88;;
28836;SDS011;50669;50.982;11.022;2023-03-14T03:44:57;4.70;;;3.20;;
28836;SDS011;50669;50.982;11.022;2023-03-14T03:47:24;4.72;;;3.35;;
28836;SDS011;50669;50.982;11.022;2023-03-14T03:49:50;4.97;;;3.50;;
28836;SDS011;50669;50.982;11.022;2023-03-14T03:52:19;3.88;;;3.22;;
28836;SDS011;50669;50.982;11.022;2023-03-14T03:54:45;4.00;;;3.28;;
28836;SDS011;50669;50.982;11.022;2023-03-14T03:57:13;3.65;;;3.10;;
28836;SDS011;50669;50.982;11.022;2023-03-14T03:59:39;4.00;;;3.08;;
28836;SDS011;50669;50.982;11.022;2023-03-14T04:02:06;3.60;;;3.00;;
28836;SDS011;50669;50.982;11.022;2023-03-14T04:04:31;3.50;;;3.10;;
28836;SDS011;50669;50.982;11.022;2023-03-14T04:06:59;3.55;;;2.95;;
28836;SDS011;50669;50.982;11.022;2023-03-14T04:09:25;3.75;;;2.92;;
28836;SDS011;50669;50.982;11.022;2023-03-14T04:11:51;4.47;;;2.88;;
28836;SDS011;50669;50.982;11.022;2023-03-14T04:14:19;3.28;;;2.60;;
28836;SDS011;50669;50.982;11.022;2023-03-14T04:16:47;3.70;;;3.25;;
28836;SDS011;50669;50.982;11.022;2023-03-14T04:19:12;3.50;;;2.70;;
28836;SDS011;50669;50.982;11.022;2023-03-14T04:21:38;4.10;;;3.30;;
28836;SDS011;50669;50.982;11.022;2023-03-14T04:24:12;3.58;;;2.90;;
28836;SDS011;50669;50.982;11.022;2023-03-14T04:26:38;3.25;;;2.95;;
28836;SDS011;50669;50.982;11.022;2023-03-14T04:29:04;3.97;;;3.17;;
28836;SDS011;50669;50.982;11.022;2023-03-14T04:31:34;2.97;;;2.55;;
28836;SDS011;50669;50.982;11.022;2023-03-14T04:33:59;3.20;;;2.63;;
28836;SDS011;50669;50.982;11.022;2023-03-14T04:36:25;3.40;;;2.78;;
28836;SDS011;50669;50.982;11.022;2023-03-14T04:38:53;3.17;;;2.65;;
28836;SDS011;50669;50.982;11.022;2023-03-14T04:41:18;4.55;;;3.15;;
28836;SDS011;50669;50.982;11.022;2023-03-14T04:43:49;3.20;;;2.67;;
28836;SDS011;50669;50.982;11.022;2023-03-14T04:46:14;3.15;;;2.80;;
28836;SDS011;50669;50.982;11.022;2023-03-14T04:48:40;4.07;;;2.97;;
28836;SDS011;50669;50.982;11.022;2023-03-14T04:51:08;3.60;;;2.63;;
28836;SDS011;50669;50.982;11.022;2023-03-14T04:53:36;3.50;;;2.80;;
28836;SDS011;50669;50.982;11.022;2023-03-14T04:56:02;3.45;;;2.53;;
28836;SDS011;50669;50.982;11.022;2023-03-14T04:58:30;2.95;;;2.60;;
28836;SDS011;50669;50.982;11.022;2023-03-14T05:01:03;3.38;;;2.58;;
28836;SDS011;50669;50.982;11.022;2023-03-14T05:03:29;4.13;;;2.90;;
28836;SDS011;50669;50.982;11.022;2023-03-14T05:05:55;3.28;;;2.67;;
28836;SDS011;50669;50.982;11.022;2023-03-14T05:08:22;2.95;;;2.50;;
28836;SDS011;50669;50.982;11.022;2023-03-14T05:10:51;3.65;;;2.90;;
28836;SDS011;50669;50.982;11.022;2023-03-14T05:15:49;3.22;;;2.80;;
28836;SDS011;50669;50.982;11.022;2023-03-14T05:18:15;3.08;;;2.72;;
28836;SDS011;50669;50.982;11.022;2023-03-14T05:20:44;2.97;;;2.30;;
28836;SDS011;50669;50.982;11.022;2023-03-14T05:23:15;4.15;;;3.15;;
28836;SDS011;50669;50.982;11.022;2023-03-14T05:25:45;4.20;;;2.60;;
28836;SDS011;50669;50.982;11.022;2023-03-14T05:28:13;3.60;;;2.78;;
28836;SDS011;50669;50.982;11.022;2023-03-14T05:30:38;3.25;;;2.88;;
28836;SDS011;50669;50.982;11.022;2023-03-14T05:33:04;2.83;;;2.45;;
28836;SDS011;50669;50.982;11.022;2023-03-14T05:35:32;2.72;;;2.28;;
28836;SDS011;50669;50.982;11.022;2023-03-14T05:37:57;2.45;;;2.15;;
28836;SDS011;50669;50.982;11.022;2023-03-14T05:40:25;2.88;;;2.20;;
28836;SDS011;50669;50.982;11.022;2023-03-14T05:42:51;3.53;;;2.55;;
28836;SDS011;50669;50.982;11.022;2023-03-14T05:45:17;3.33;;;2.50;;
28836;SDS011;50669;50.982;11.022;2023-03-14T05:47:43;3.25;;;2.35;;
28836;SDS011;50669;50.982;11.022;2023-03-14T05:50:09;3.40;;;2.30;;
28836;SDS011;50669;50.982;11.022;2023-03-14T05:52:35;2.90;;;2.50;;
28836;SDS011;50669;50.982;11.022;2023-03-14T05:55:03;2.95;;;2.42;;
28836;SDS011;50669;50.982;11.022;2023-03-14T05:57:32;2.65;;;2.30;;
28836;SDS011;50669;50.982;11.022;2023-03-14T05:59:59;3.28;;;2.70;;
28836;SDS011;50669;50.982;11.022;2023-03-14T06:02:25;3.67;;;2.40;;
28836;SDS011;50669;50.982;11.022;2023-03-14T06:04:53;2.45;;;2.20;;
28836;SDS011;50669;50.982;11.022;2023-03-14T06:07:19;2.35;;;2.15;;
28836;SDS011;50669;50.982;11.022;2023-03-14T06:09:44;3.03;;;2.60;;
28836;SDS011;50669;50.982;11.022;2023-03-14T06:12:10;3.35;;;2.30;;
28836;SDS011;50669;50.982;11.022;2023-03-14T06:14:35;2.88;;;2.50;;
28836;SDS011;50669;50.982;11.022;2023-03-14T06:17:01;3.40;;;2.40;;
28836;SDS011;50669;50.982;11.022;2023-03-14T06:19:27;3.20;;;2.17;;
28836;SDS011;50669;50.982;11.022;2023-03-14T06:21:52;2.92;;;2.35;;
28836;SDS011;50669;50.982;11.022;2023-03-14T06:24:18;2.40;;;2.20;;
28836;SDS011;50669;50.982;11.022;2023-03-14T06:26:46;3.22;;;2.70;;
28836;SDS011;50669;50.982;11.022;2023-03-14T06:29:11;2.75;;;2.20;;
28836;SDS011;50669;50.982;11.022;2023-03-14T06:31:38;2.75;;;2.22;;
28836;SDS011;50669;50.982;11.022;2023-03-14T06:34:04;3.20;;;2.50;;
28836;SDS011;50669;50.982;11.022;2023-03-14T06:36:32;3.15;;;2.35;;
28836;SDS011;50669;50.982;11.022;2023-03-14T06:39:00;3.22;;;2.50;;
28836;SDS011;50669;50.982;11.022;2023-03-14T06:41:25;3.28;;;2.33;;
28836;SDS011;50669;50.982;11.022;2023-03-14T06:43:51;2.97;;;2.25;;
28836;SDS011;50669;50.982;11.022;2023-03-14T06:46:17;3.40;;;2.75;;
28836;SDS011;50669;50.982;11.022;2023-03-14T06:48:45;2.55;;;2.00;;
28836;SDS011;50669;50.982;11.022;2023-03-14T06:51:11;2.47;;;2.00;;
28836;SDS011;50669;50.982;11.022;2023-03-14T06:53:37;2.97;;;2.20;;
28836;SDS011;50669;50.982;11.022;2023-03-14T06:56:05;2.13;;;1.92;;
28836;SDS011;50669;50.982;11.022;2023-03-14T06:58:31;2.47;;;2.10;;
28836;SDS011;50669;50.982;11.022;2023-03-14T07:00:56;2.72;;;2.40;;
28836;SDS011;50669;50.982;11.022;2023-03-14T07:03:23;2.75;;;2.10;;
28836;SDS011;50669;50.982;11.022;2023-03-14T07:05:51;2.92;;;2.22;;
28836;SDS011;50669;50.982;11.022;2023-03-14T07:08:21;2.33;;;2.00;;
28836;SDS011;50669;50.982;11.022;2023-03-14T07:10:47;3.00;;;2.35;;
28836;SDS011;50669;50.982;11.022;2023-03-14T07:13:12;2.75;;;1.98;;
28836;SDS011;50669;50.982;11.022;2023-03-14T07:15:41;2.28;;;2.03;;
28836;SDS011;50669;50.982;11.022;2023-03-14T07:18:06;2.45;;;2.15;;
28836;SDS011;50669;50.982;11.022;2023-03-14T07:20:34;2.17;;;1.80;;
28836;SDS011;50669;50.982;11.022;2023-03-14T07:23:02;3.22;;;2.40;;
28836;SDS011;50669;50.982;11.022;2023-03-14T07:25:28;2.55;;;1.92;;
28836;SDS011;50669;50.982;11.022;2023-03-14T07:27:54;2.22;;;1.90;;
28836;SDS011;50669;50.982;11.022;2023-03-14T07:30:20;2.60;;;2.08;;
28836;SDS011;50669;50.982;11.022;2023-03-14T07:32:45;2.75;;;2.10;;
28836;SDS011;50669;50.982;11.022;2023-03-14T07:35:13;2.60;;;2.20;;
28836;SDS011;50669;50.982;11.022;2023-03-14T07:37:39;2.08;;;1.88;;
28836;SDS011;50669;50.982;11.022;2023-03-14T07:40:08;2.88;;;2.03;;
28836;SDS011;50669;50.982;11.022;2023-03-14T07:42:35;2.80;;;2.10;;
28836;SDS011;50669;50.982;11.022;2023-03-14T07:45:01;3.15;;;2.10;;
28836;SDS011;50669;50.982;11.022;2023-03-14T07:47:28;2.65;;;2.22;;
28836;SDS011;50669;50.982;11.022;2023-03-14T07:49:55;3.20;;;2.13;;
28836;SDS011;50669;50.982;11.022;2023-03-14T07:52:23;2.38;;;1.90;;
28836;SDS011;50669;50.982;11.022;2023-03-14T07:54:51;2.33;;;1.70;;
28836;SDS011;50669;50.982;11.022;2023-03-14T07:57:17;3.13;;;2.40;;
28836;SDS011;50669;50.982;11.022;2023-03-14T07:59:42;2.75;;;2.20;;
28836;SDS011;50669;50.982;11.022;2023-03-14T08:02:10;2.88;;;2.15;;
28836;SDS011;50669;50.982;11.022;2023-03-14T08:04:42;1.88;;;1.65;;
28836;SDS011;50669;50.982;11.022;2023-03-14T08:07:07;2.45;;;1.75;;
28836;SDS011;50669;50.982;11.022;2023-03-14T08:09:33;2.42;;;1.85;;
28836;SDS011;50669;50.982;11.022;2023-03-14T08:11:58;2.72;;;2.20;;
28836;SDS011;50669;50.982;11.022;2023-03-14T08:14:26;3.13;;;2.25;;
28836;SDS011;50669;50.982;11.022;2023-03-14T08:16:56;2.08;;;1.88;;
28836;SDS011;50669;50.982;11.022;2023-03-14T08:19:24;2.03;;;1.70;;
28836;SDS011;50669;50.982;11.022;2023-03-14T08:21:52;2.50;;;2.10;;
28836;SDS011;50669;50.982;11.022;2023-03-14T08:24:18;2.97;;;2.03;;
28836;SDS011;50669;50.982;11.022;2023-03-14T08:26:43;2.97;;;2.17;;
28836;SDS011;50669;50.982;11.022;2023-03-14T08:29:09;2.20;;;1.98;;
28836;SDS011;50669;50.982;11.022;2023-03-14T08:31:38;2.65;;;2.00;;
28836;SDS011;50669;50.982;11.022;2023-03-14T08:34:03;2.83;;;2.17;;
28836;SDS011;50669;50.982;11.022;2023-03-14T08:36:30;2.28;;;1.88;;
28836;SDS011;50669;50.982;11.022;2023-03-14T08:38:56;2.17;;;1.92;;
28836;SDS011;50669;50.982;11.022;2023-03-14T08:41:22;3.35;;;2.30;;
28836;SDS011;50669;50.982;11.022;2023-03-14T08:43:47;2.47;;;2.10;;
28836;SDS011;50669;50.982;11.022;2023-03-14T08:46:13;3.38;;;2.30;;
28836;SDS011;50669;50.982;11.022;2023-03-14T08:48:39;2.20;;;1.80;;
28836;SDS011;50669;50.982;11.022;2023-03-14T08:51:09;2.63;;;2.03;;
28836;SDS011;50669;50.982;11.022;2023-03-14T08:53:37;3.30;;;2.17;;
28836;SDS011;50669;50.982;11.022;2023-03-14T08:56:05;2.70;;;1.92;;
28836;SDS011;50669;50.982;11.022;2023-03-14T08:58:32;2.88;;;2.03;;
28836;SDS011;50669;50.982;11.022;2023-03-14T09:00:58;2.90;;;2.20;;
28836;SDS011;50669;50.982;11.022;2023-03-14T09:03:28;2.20;;;1.70;;
28836;SDS011;50669;50.982;11.022;2023-03-14T09:06:00;2.90;;;2.20;;
28836;SDS011;50669;50.982;11.022;2023-03-14T09:08:28;2.47;;;1.98;;
28836;SDS011;50669;50.982;11.022;2023-03-14T09:10:56;3.33;;;2.20;;
28836;SDS011;50669;50.982;11.022;2023-03-14T09:13:24;2.85;;;1.92;;
28836;SDS011;50669;50.982;11.022;2023-03-14T09:15:51;2.55;;;2.10;;
28836;SDS011;50669;50.982;11.022;2023-03-14T09:18:22;2.25;;;1.80;;
28836;SDS011;50669;50.982;11.022;2023-03-14T09:20:50;2.88;;;1.92;;
28836;SDS011;50669;50.982;11.022;2023-03-14T09:23:15;3.17;;;2.22;;
28836;SDS011;50669;50.982;11.022;2023-03-14T09:25:41;2.70;;;2.10;;
28836;SDS011;50669;50.982;11.022;2023-03-14T09:28:09;2.22;;;1.80;;
28836;SDS011;50669;50.982;11.022;2023-03-14T09:30:38;3.33;;;2.35;;
28836;SDS011;50669;50.982;11.022;2023-03-14T09:33:03;3.00;;;2.15;;
28836;SDS011;50669;50.982;11.022;2023-03-14T09:35:29;2.13;;;1.70;;
28836;SDS011;50669;50.982;11.022;2023-03-14T09:37:55;2.22;;;1.70;;
28836;SDS011;50669;50.982;11.022;2023-03-14T09:40:21;2.80;;;2.17;;
28836;SDS011;50669;50.982;11.022;2023-03-14T09:42:50;2.40;;;1.98;;
28836;SDS011;50669;50.982;11.022;2023-03-14T09:45:23;3.22;;;2.13;;
28836;SDS011;50669;50.982;11.022;2023-03-14T09:50:22;2.08;;;1.88;;
28836;SDS011;50669;50.982;11.022;2023-03-14T09:52:51;2.25;;;1.70;;
28836;SDS011;50669;50.982;11.022;2023-03-14T09:55:22;2.17;;;1.98;;
28836;SDS011;50669;50.982;11.022;2023-03-14T09:57:53;2.33;;;1.90;;
28836;SDS011;50669;50.982;11.022;2023-03-14T10:00:23;2.13;;;1.92;;
28836;SDS011;50669;50.982;11.022;2023-03-14T10:02:56;3.00;;;2.03;;
28836;SDS011;50669;50.982;11.022;2023-03-14T10:05:27;3.20;;;2.40;;
28836;SDS011;50669;50.982;11.022;2023-03-14T10:07:54;1.85;;;1.40;;
28836;SDS011;50669;50.982;11.022;2023-03-14T10:10:21;2.47;;;1.92;;
28836;SDS011;50669;50.982;11.022;2023-03-14T10:12:59;2.10;;;1.80;;
28836;SDS011;50669;50.982;11.022;2023-03-14T10:15:37;2.83;;;2.10;;
28836;SDS011;50669;50.982;11.022;2023-03-14T10:18:10;3.20;;;2.00;;
28836;SDS011;50669;50.982;11.022;2023-03-14T10:20:44;2.17;;;1.80;;
28836;SDS011;50669;50.982;11.022;2023-03-14T10:25:39;2.15;;;1.67;;
28836;SDS011;50669;50.982;11.022;2023-03-14T10:28:26;2.33;;;1.95;;
28836;SDS011;50669;50.982;11.022;2023-03-14T10:30:57;2.17;;;1.90;;
28836;SDS011;50669;50.982;11.022;2023-03-14T10:33:30;2.33;;;2.08;;
28836;SDS011;50669;50.982;11.022;2023-03-14T10:35:58;2.40;;;1.92;;
28836;SDS011;50669;50.982;11.022;2023-03-14T10:38:34;1.80;;;1.52;;
28836;SDS011;50669;50.982;11.022;2023-03-14T10:41:14;3.13;;;1.92;;
28836;SDS011;50669;50.982;11.022;2023-03-14T10:43:43;3.88;;;2.17;;
28836;SDS011;50669;50.982;11.022;2023-03-14T10:46:12;2.25;;;1.77;;
28836;SDS011;50669;50.982;11.022;2023-03-14T10:48:43;3.78;;;1.85;;
28836;SDS011;50669;50.982;11.022;2023-03-14T10:56:33;2.97;;;1.88;;
28836;SDS011;50669;50.982;11.022;2023-03-14T10:59:01;2.35;;;1.85;;
28836;SDS011;50669;50.982;11.022;2023-03-14T11:01:39;2.30;;;1.90;;
28836;SDS011;50669;50.982;11.022;2023-03-14T11:10:00;2.65;;;2.05;;
28836;SDS011;50669;50.982;11.022;2023-03-14T11:15:58;2.20;;;1.50;;
28836;SDS011;50669;50.982;11.022;2023-03-14T11:28:58;2.40;;;1.65;;
28836;SDS011;50669;50.982;11.022;2023-03-14T11:31:32;2.38;;;1.88;;
28836;SDS011;50669;50.982;11.022;2023-03-14T11:34:17;2.00;;;1.63;;
28836;SDS011;50669;50.982;11.022;2023-03-14T11:39:29;2.72;;;2.10;;
28836;SDS011;50669;50.982;11.022;2023-03-14T11:42:11;2.00;;;1.70;;
28836;SDS011;50669;50.982;11.022;2023-03-14T11:44:39;1.58;;;1.42;;
28836;SDS011;50669;50.982;11.022;2023-03-14T11:57:41;1.90;;;1.70;;
28836;SDS011;50669;50.982;11.022;2023-03-14T12:00:20;2.05;;;1.50;;
28836;SDS011;50669;50.982;11.022;2023-03-14T12:08:19;2.10;;;1.55;;
28836;SDS011;50669;50.982;11.022;2023-03-14T12:10:55;2.13;;;1.50;;
28836;SDS011;50669;50.982;11.022;2023-03-14T12:13:32;1.70;;;1.60;;
28836;SDS011;50669;50.982;11.022;2023-03-14T12:16:03;2.67;;;1.45;;
28836;SDS011;50669;50.982;11.022;2023-03-14T12:18:37;1.90;;;1.55;;
28836;SDS011;50669;50.982;11.022;2023-03-14T12:21:08;2.22;;;1.63;;
28836;SDS011;50669;50.982;11.022;2023-03-14T12:26:19;1.63;;;1.42;;
28836;SDS011;50669;50.982;11.022;2023-03-14T12:29:16;1.63;;;1.48;;
28836;SDS011;50669;50.982;11.022;2023-03-14T12:39:21;2.00;;;1.58;;
28836;SDS011;50669;50.982;11.022;2023-03-14T12:41:53;2.03;;;1.83;;
28836;SDS011;50669;50.982;11.022;2023-03-14T12:47:00;2.55;;;1.75;;
28836;SDS011;50669;50.982;11.022;2023-03-14T12:49:42;1.67;;;1.42;;
28836;SDS011;50669;50.982;11.022;2023-03-14T12:52:13;1.70;;;1.60;;
28836;SDS011;50669;50.982;11.022;2023-03-14T13:00:22;1.95;;;1.40;;
28836;SDS011;50669;50.982;11.022;2023-03-14T13:02:59;2.50;;;1.75;;
28836;SDS011;50669;50.982;11.022;2023-03-14T13:06:02;2.08;;;1.60;;
28836;SDS011;50669;50.982;11.022;2023-03-14T13:08:44;2.08;;;1.65;;
28836;SDS011;50669;50.982;11.022;2023-03-14T13:11:15;2.20;;;1.58;;
28836;SDS011;50669;50.982;11.022;2023-03-14T13:13:47;2.03;;;1.60;;
28836;SDS011;50669;50.982;11.022;2023-03-14T13:16:17;1.92;;;1.65;;
28836;SDS011;50669;50.982;11.022;2023-03-14T13:18:45;2.03;;;1.83;;
28836;SDS011;50669;50.982;11.022;2023-03-14T13:21:20;1.90;;;1.50;;
28836;SDS011;50669;50.982;11.022;2023-03-14T13:24:33;2.13;;;1.67;;
28836;SDS011;50669;50.982;11.022;2023-03-14T13:26:49;1.88;;;1.48;;
28836;SDS011;50669;50.982;11.022;2023-03-14T13:29:21;2.17;;;1.67;;
28836;SDS011;50669;50.982;11.022;2023-03-14T13:31:48;1.45;;;1.25;;
28836;SDS011;50669;50.982;11.022;2023-03-14T13:34:18;2.20;;;1.80;;
28836;SDS011;50669;50.982;11.022;2023-03-14T13:36:44;2.05;;;1.63;;
28836;SDS011;50669;50.982;11.022;2023-03-14T13:39:16;2.08;;;1.48;;
28836;SDS011;50669;50.982;11.022;2023-03-14T13:41:47;2.10;;;1.73;;
28836;SDS011;50669;50.982;11.022;2023-03-14T13:44:15;2.83;;;1.80;;
28836;SDS011;50669;50.982;11.022;2023-03-14T13:46:48;2.63;;;1.80;;
28836;SDS011;50669;50.982;11.022;2023-03-14T13:49:18;2.67;;;1.83;;
28836;SDS011;50669;50.982;11.022;2023-03-14T13:51:49;2.25;;;1.80;;
28836;SDS011;50669;50.982;11.022;2023-03-14T13:54:18;2.45;;;1.70;;
28836;SDS011;50669;50.982;11.022;2023-03-14T13:56:45;2.08;;;1.70;;
28836;SDS011;50669;50.982;11.022;2023-03-14T13:59:27;2.17;;;1.90;;
28836;SDS011;50669;50.982;11.022;2023-03-14T14:01:58;3.22;;;1.90;;
28836;SDS011;50669;50.982;11.022;2023-03-14T14:04:26;2.58;;;2.10;;
28836;SDS011;50669;50.982;11.022;2023-03-14T14:06:59;2.63;;;2.08;;
28836;SDS011;50669;50.982;11.022;2023-03-14T14:16:58;3.33;;;2.28;;
28836;SDS011;50669;50.982;11.022;2023-03-14T14:19:27;3.15;;;2.30;;
28836;SDS011;50669;50.982;11.022;2023-03-14T14:21:57;3.17;;;2.45;;
28836;SDS011;50669;50.982;11.022;2023-03-14T14:24:24;2.90;;;2.30;;
28836;SDS011;50669;50.982;11.022;2023-03-14T14:26:54;2.70;;;2.28;;
28836;SDS011;50669;50.982;11.022;2023-03-14T14:34:26;3.50;;;2.60;;
28836;SDS011;50669;50.982;11.022;2023-03-14T14:36:52;3.60;;;2.78;;
28836;SDS011;50669;50.982;11.022;2023-03-14T14:41:50;2.85;;;2.60;;
28836;SDS011;50669;50.982;11.022;2023-03-14T14:44:21;3.90;;;3.00;;
28836;SDS011;50669;50.982;11.022;2023-03-14T14:46:55;2.90;;;2.60;;
28836;SDS011;50669;50.982;11.022;2023-03-14T14:49:28;3.40;;;2.92;;
28836;SDS011;50669;50.982;11.022;2023-03-14T14:52:00;3.70;;;3.10;;
28836;SDS011;50669;50.982;11.022;2023-03-14T14:54:57;3.90;;;3.20;;
28836;SDS011;50669;50.982;11.022;2023-03-14T14:57:25;3.53;;;3.15;;
28836;SDS011;50669;50.982;11.022;2023-03-14T14:59:56;3.80;;;3.40;;
28836;SDS011;50669;50.982;11.022;2023-03-14T15:05:05;4.68;;;3.50;;
28836;SDS011;50669;50.982;11.022;2023-03-14T15:07:39;3.55;;;3.25;;
28836;SDS011;50669;50.982;11.022;2023-03-14T15:10:10;3.67;;;3.05;;
28836;SDS011;50669;50.982;11.022;2023-03-14T15:12:37;3.85;;;3.13;;
28836;SDS011;50669;50.982;11.022;2023-03-14T15:15:05;3.70;;;3.33;;
28836;SDS011;50669;50.982;11.022;2023-03-14T15:17:31;3.95;;;3.05;;
28836;SDS011;50669;50.982;11.022;2023-03-14T15:19:57;4.40;;;3.30;;
28836;SDS011;50669;50.982;11.022;2023-03-14T15:22:23;3.88;;;2.97;;
28836;SDS011;50669;50.982;11.022;2023-03-14T15:24:49;4.63;;;3.35;;
28836;SDS011;50669;50.982;11.022;2023-03-14T15:27:17;4.43;;;3.42;;
28836;SDS011;50669;50.982;11.022;2023-03-14T15:29:45;4.07;;;3.60;;
28836;SDS011;50669;50.982;11.022;2023-03-14T15:32:12;3.60;;;3.30;;
28836;SDS011;50669;50.982;11.022;2023-03-14T15:34:39;3.85;;;3.42;;
28836;SDS011;50669;50.982;11.022;2023-03-14T15:37:07;4.40;;;3.50;;
28836;SDS011;50669;50.982;11.022;2023-03-14T15:39:35;4.25;;;3.65;;
28836;SDS011;50669;50.982;11.022;2023-03-14T15:42:06;4.22;;;3.53;;
28836;SDS011;50669;50.982;11.022;2023-03-14T15:44:32;4.03;;;3.22;;
28836;SDS011;50669;50.982;11.022;2023-03-14T15:47:01;4.95;;;4.07;;
28836;SDS011;50669;50.982;11.022;2023-03-14T15:49:29;4.43;;;4.03;;
28836;SDS011;50669;50.982;11.022;2023-03-14T15:51:54;4.25;;;3.47;;
28836;SDS011;50669;50.982;11.022;2023-03-14T15:54:20;4.43;;;3.83;;
28836;SDS011;50669;50.982;11.022;2023-03-14T15:56:46;4.63;;;4.05;;
28836;SDS011;50669;50.982;11.022;2023-03-14T15:59:12;4.10;;;3.22;;
28836;SDS011;50669;50.982;11.022;2023-03-14T16:01:40;4.28;;;3.75;;
28836;SDS011;50669;50.982;11.022;2023-03-14T16:04:05;6.60;;;4.18;;
28836;SDS011;50669;50.982;11.022;2023-03-14T16:06:33;4.38;;;3.88;;
28836;SDS011;50669;50.982;11.022;2023-03-14T16:09:00;5.28;;;4.05;;
28836;SDS011;50669;50.982;11.022;2023-03-14T16:11:26;4.72;;;4.05;;
28836;SDS011;50669;50.982;11.022;2023-03-14T16:13:51;4.63;;;4.07;;
28836;SDS011;50669;50.982;11.022;2023-03-14T16:16:17;4.13;;;3.72;;
28836;SDS011;50669;50.982;11.022;2023-03-14T16:18:45;4.90;;;3.92;;
28836;SDS011;50669;50.982;11.022;2023-03-14T16:21:11;4.78;;;4.18;;